VOE7SM LFMT-LFRS
Flight info
| Callsign | VOE7SM |
|---|---|
| Flight time | 0h 59m |
| Altitude | 30000 |
| Route | BRUSC DCT GAI DCT SECHE DCT UVELI DCT CNA DCT MANAK |
| Aircraft | A320/M-SDFGHIJ1RWY/LB1 |
Departure
| Time | 2026-05-04 18:55 |
|---|---|
| Airport | Montpellier-Méditerranée Airport (LFMT) |
Arrival
| Time | 2026-05-04 19:54 |
|---|---|
| Airport | Nantes Atlantique Airport (LFRS) |
| Time | Latitude | Longitude | Altitude | Speed | Heading |
|---|---|---|---|---|---|
| 2026-05-04 18:18 | 43.58037 | 3.95808 | 15 ft | 0 kts | 214° |
| 2026-05-04 18:47 | 43.58043 | 3.95813 | 15 ft | 4 kts | 216° |
| 2026-05-04 18:47 | 43.58064 | 3.95837 | 18 ft | 4 kts | 231° |
| 2026-05-04 18:48 | 43.58073 | 3.95865 | 16 ft | 4 kts | 291° |
| 2026-05-04 18:48 | 43.58071 | 3.95873 | 17 ft | 0 kts | 307° |
| 2026-05-04 18:51 | 43.58081 | 3.95854 | 15 ft | 4 kts | 307° |
| 2026-05-04 18:51 | 43.58098 | 3.95822 | 15 ft | 4 kts | 307° |
| 2026-05-04 18:51 | 43.58124 | 3.95780 | 16 ft | 8 kts | 320° |
| 2026-05-04 18:52 | 43.58190 | 3.95779 | 16 ft | 10 kts | 34° |
| 2026-05-04 18:52 | 43.58245 | 3.95833 | 14 ft | 11 kts | 9° |
| 2026-05-04 18:52 | 43.58313 | 3.95759 | 12 ft | 14 kts | 306° |
| 2026-05-04 18:52 | 43.58370 | 3.95648 | 13 ft | 14 kts | 304° |
| 2026-05-04 18:53 | 43.58422 | 3.95545 | 15 ft | 12 kts | 304° |
| 2026-05-04 18:53 | 43.58494 | 3.95498 | 12 ft | 11 kts | 3° |
| 2026-05-04 18:53 | 43.58526 | 3.95513 | 12 ft | 0 kts | 27° |
| 2026-05-04 18:54 | 43.58543 | 3.95526 | 14 ft | 7 kts | 33° |
| 2026-05-04 18:54 | 43.58586 | 3.95596 | 11 ft | 10 kts | 69° |
| 2026-05-04 18:54 | 43.58567 | 3.95661 | 11 ft | 0 kts | 125° |
| 2026-05-04 18:55 | 43.58505 | 3.95783 | 11 ft | 47 kts | 124° |
| 2026-05-04 18:55 | 43.57707 | 3.97391 | 259 ft | 132 kts | 123° |
| 2026-05-04 18:55 | 43.57193 | 3.98432 | 962 ft | 133 kts | 124° |
| 2026-05-04 18:56 | 43.56657 | 3.99484 | 1687 ft | 135 kts | 127° |
| 2026-05-04 18:56 | 43.56089 | 4.00600 | 2105 ft | 153 kts | 128° |
| 2026-05-04 18:56 | 43.55427 | 4.01882 | 2451 ft | 175 kts | 129° |
| 2026-05-04 18:56 | 43.54658 | 4.03359 | 2679 ft | 204 kts | 133° |
| 2026-05-04 18:57 | 43.53419 | 4.04397 | 3038 ft | 223 kts | 173° |
| 2026-05-04 18:57 | 43.51869 | 4.03922 | 3631 ft | 244 kts | 210° |
| 2026-05-04 18:57 | 43.50798 | 4.02069 | 4441 ft | 259 kts | 245° |
| 2026-05-04 18:57 | 43.50520 | 3.99585 | 5402 ft | 267 kts | 263° |
| 2026-05-04 18:58 | 43.50571 | 3.97008 | 6284 ft | 272 kts | 269° |
| 2026-05-04 18:58 | 43.50678 | 3.94391 | 7104 ft | 275 kts | 267° |
| 2026-05-04 18:58 | 43.50730 | 3.91763 | 7976 ft | 275 kts | 265° |
| 2026-05-04 18:58 | 43.50742 | 3.89118 | 8775 ft | 280 kts | 269° |
| 2026-05-04 18:59 | 43.51129 | 3.86447 | 9589 ft | 290 kts | 282° |
| 2026-05-04 18:59 | 43.51884 | 3.83839 | 10299 ft | 298 kts | 285° |
| 2026-05-04 18:59 | 43.52666 | 3.81118 | 10519 ft | 321 kts | 285° |
| 2026-05-04 18:59 | 43.53492 | 3.78175 | 10951 ft | 334 kts | 288° |
| 2026-05-04 19:00 | 43.54338 | 3.75170 | 11624 ft | 339 kts | 288° |
| 2026-05-04 19:00 | 43.55200 | 3.72128 | 12294 ft | 342 kts | 288° |
| 2026-05-04 19:00 | 43.56073 | 3.69053 | 12999 ft | 347 kts | 289° |
| 2026-05-04 19:00 | 43.56954 | 3.65941 | 13696 ft | 350 kts | 288° |
| 2026-05-04 19:01 | 43.57843 | 3.62794 | 14302 ft | 354 kts | 289° |
| 2026-05-04 19:01 | 43.58740 | 3.59612 | 14907 ft | 358 kts | 289° |
| 2026-05-04 19:01 | 43.59648 | 3.56398 | 15523 ft | 361 kts | 289° |
| 2026-05-04 19:01 | 43.60562 | 3.53163 | 16132 ft | 364 kts | 288° |
| 2026-05-04 19:02 | 43.61484 | 3.49885 | 16748 ft | 368 kts | 288° |
| 2026-05-04 19:02 | 43.62411 | 3.46581 | 17345 ft | 371 kts | 288° |
| 2026-05-04 19:02 | 43.63348 | 3.43248 | 17942 ft | 374 kts | 288° |
| 2026-05-04 19:02 | 43.64294 | 3.39886 | 18496 ft | 377 kts | 288° |
| 2026-05-04 19:03 | 43.65250 | 3.36496 | 19009 ft | 381 kts | 288° |
| 2026-05-04 19:03 | 43.66215 | 3.33072 | 19540 ft | 384 kts | 288° |
| 2026-05-04 19:03 | 43.67185 | 3.29615 | 20092 ft | 388 kts | 287° |
| 2026-05-04 19:03 | 43.68194 | 3.26139 | 20645 ft | 394 kts | 292° |
| 2026-05-04 19:04 | 43.69751 | 3.22981 | 21129 ft | 404 kts | 309° |
| 2026-05-04 19:04 | 43.71680 | 3.20126 | 21635 ft | 408 kts | 310° |
| 2026-05-04 19:04 | 43.73643 | 3.17266 | 22130 ft | 412 kts | 310° |
| 2026-05-04 19:04 | 43.75629 | 3.14388 | 22626 ft | 415 kts | 310° |
| 2026-05-04 19:05 | 43.77632 | 3.11484 | 23106 ft | 419 kts | 310° |
| 2026-05-04 19:05 | 43.79650 | 3.08548 | 23589 ft | 422 kts | 309° |
| 2026-05-04 19:05 | 43.81625 | 3.05602 | 24018 ft | 423 kts | 308° |
| 2026-05-04 19:05 | 43.83597 | 3.02562 | 24451 ft | 425 kts | 308° |
| 2026-05-04 19:06 | 43.85558 | 2.99482 | 24844 ft | 427 kts | 308° |
| 2026-05-04 19:06 | 43.87523 | 2.96373 | 25218 ft | 430 kts | 308° |
| 2026-05-04 19:06 | 43.89499 | 2.93245 | 25559 ft | 433 kts | 308° |
| 2026-05-04 19:06 | 43.91491 | 2.90103 | 25920 ft | 435 kts | 308° |
| 2026-05-04 19:07 | 43.93504 | 2.86949 | 26272 ft | 438 kts | 308° |
| 2026-05-04 19:07 | 43.95533 | 2.83787 | 26617 ft | 440 kts | 308° |
| 2026-05-04 19:07 | 43.97577 | 2.80607 | 26964 ft | 443 kts | 308° |
| 2026-05-04 19:07 | 43.99631 | 2.77408 | 27303 ft | 445 kts | 308° |
| 2026-05-04 19:08 | 44.01696 | 2.74182 | 27620 ft | 448 kts | 308° |
| 2026-05-04 19:08 | 44.03770 | 2.70931 | 27921 ft | 451 kts | 307° |
| 2026-05-04 19:08 | 44.05850 | 2.67658 | 28228 ft | 453 kts | 307° |
| 2026-05-04 19:08 | 44.07937 | 2.64366 | 28595 ft | 454 kts | 308° |
| 2026-05-04 19:09 | 44.10030 | 2.61064 | 28947 ft | 456 kts | 308° |
| 2026-05-04 19:09 | 44.12135 | 2.57745 | 29250 ft | 458 kts | 308° |
| 2026-05-04 19:09 | 44.14246 | 2.54411 | 29546 ft | 460 kts | 308° |
| 2026-05-04 19:09 | 44.16362 | 2.51064 | 29830 ft | 462 kts | 308° |
| 2026-05-04 19:10 | 44.20553 | 2.44437 | 29952 ft | 444 kts | 307° |
| 2026-05-04 19:10 | 44.24607 | 2.38020 | 29949 ft | 439 kts | 307° |
| 2026-05-04 19:11 | 44.28625 | 2.31619 | 29940 ft | 438 kts | 307° |
| 2026-05-04 19:11 | 44.32615 | 2.25247 | 29942 ft | 440 kts | 307° |
| 2026-05-04 19:12 | 44.38674 | 2.15571 | 29941 ft | 441 kts | 307° |
| 2026-05-04 19:13 | 44.42710 | 2.09110 | 29952 ft | 441 kts | 307° |
| 2026-05-04 19:13 | 44.46733 | 2.02636 | 29949 ft | 440 kts | 307° |
| 2026-05-04 19:14 | 44.50742 | 1.96168 | 29948 ft | 440 kts | 307° |
| 2026-05-04 19:14 | 44.54755 | 1.89688 | 29966 ft | 440 kts | 307° |
| 2026-05-04 19:15 | 44.58771 | 1.83193 | 29932 ft | 442 kts | 307° |
| 2026-05-04 19:15 | 44.62799 | 1.76667 | 29925 ft | 443 kts | 307° |
| 2026-05-04 19:16 | 44.66832 | 1.70123 | 29921 ft | 443 kts | 307° |
| 2026-05-04 19:16 | 44.70865 | 1.63558 | 29929 ft | 444 kts | 307° |
| 2026-05-04 19:17 | 44.74891 | 1.56975 | 29924 ft | 444 kts | 307° |
| 2026-05-04 19:17 | 44.78894 | 1.50418 | 29950 ft | 445 kts | 307° |
| 2026-05-04 19:18 | 44.82929 | 1.43797 | 29920 ft | 446 kts | 307° |
| 2026-05-04 19:18 | 44.86977 | 1.37153 | 29923 ft | 447 kts | 307° |
| 2026-05-04 19:19 | 44.91025 | 1.30473 | 29925 ft | 448 kts | 306° |
| 2026-05-04 19:19 | 44.95067 | 1.23778 | 29929 ft | 448 kts | 306° |
| 2026-05-04 19:20 | 44.99114 | 1.17076 | 29936 ft | 449 kts | 306° |
| 2026-05-04 19:20 | 45.03163 | 1.10358 | 29950 ft | 449 kts | 305° |
| 2026-05-04 19:21 | 45.07218 | 1.03620 | 29922 ft | 450 kts | 305° |
| 2026-05-04 19:21 | 45.11244 | 0.96899 | 29915 ft | 451 kts | 305° |
| 2026-05-04 19:22 | 45.15302 | 0.90125 | 29937 ft | 451 kts | 305° |
| 2026-05-04 19:22 | 45.19356 | 0.83338 | 29940 ft | 451 kts | 305° |
| 2026-05-04 19:23 | 45.23396 | 0.76533 | 29975 ft | 451 kts | 305° |
| 2026-05-04 19:23 | 45.27433 | 0.69735 | 29972 ft | 450 kts | 305° |
| 2026-05-04 19:24 | 45.31455 | 0.62943 | 29964 ft | 449 kts | 305° |
| 2026-05-04 19:24 | 45.35460 | 0.56159 | 29956 ft | 448 kts | 304° |
| 2026-05-04 19:25 | 45.39467 | 0.49366 | 29942 ft | 448 kts | 304° |
| 2026-05-04 19:25 | 45.43434 | 0.42614 | 29935 ft | 448 kts | 304° |
| 2026-05-04 19:26 | 45.47427 | 0.35813 | 29967 ft | 447 kts | 304° |
| 2026-05-04 19:26 | 45.51416 | 0.29011 | 29968 ft | 447 kts | 304° |
| 2026-05-04 19:27 | 45.55386 | 0.22201 | 29959 ft | 446 kts | 304° |
| 2026-05-04 19:27 | 45.59341 | 0.15397 | 29960 ft | 446 kts | 304° |
| 2026-05-04 19:28 | 45.63303 | 0.08582 | 29950 ft | 446 kts | 304° |
| 2026-05-04 19:28 | 45.67256 | 0.01762 | 29947 ft | 445 kts | 304° |
| 2026-05-04 19:29 | 45.71201 | -0.05066 | 29983 ft | 445 kts | 304° |
| 2026-05-04 19:29 | 45.75140 | -0.11894 | 29974 ft | 444 kts | 304° |
| 2026-05-04 19:30 | 45.79063 | -0.18726 | 29964 ft | 444 kts | 304° |
| 2026-05-04 19:30 | 45.82957 | -0.25585 | 29952 ft | 443 kts | 303° |
| 2026-05-04 19:31 | 45.86836 | -0.32453 | 29944 ft | 443 kts | 303° |
| 2026-05-04 19:31 | 45.90712 | -0.39330 | 29943 ft | 443 kts | 303° |
| 2026-05-04 19:32 | 45.94559 | -0.46162 | 29941 ft | 443 kts | 303° |
| 2026-05-04 19:32 | 45.98436 | -0.53048 | 29942 ft | 443 kts | 304° |
| 2026-05-04 19:33 | 46.02364 | -0.60060 | 29963 ft | 459 kts | 303° |
| 2026-05-04 19:33 | 46.06372 | -0.67247 | 29337 ft | 453 kts | 304° |
| 2026-05-04 19:33 | 46.08334 | -0.70755 | 28333 ft | 447 kts | 304° |
| 2026-05-04 19:34 | 46.10268 | -0.74215 | 27364 ft | 440 kts | 304° |
| 2026-05-04 19:34 | 46.12176 | -0.77632 | 26485 ft | 438 kts | 304° |
| 2026-05-04 19:34 | 46.13457 | -0.79936 | 26239 ft | 433 kts | 304° |
| 2026-05-04 19:34 | 46.15328 | -0.83304 | 25836 ft | 427 kts | 304° |
| 2026-05-04 19:35 | 46.17164 | -0.86617 | 25169 ft | 419 kts | 304° |
| 2026-05-04 19:35 | 46.18959 | -0.89858 | 24636 ft | 406 kts | 304° |
| 2026-05-04 19:35 | 46.20684 | -0.92937 | 24157 ft | 394 kts | 307° |
| 2026-05-04 19:35 | 46.22652 | -0.95705 | 23698 ft | 397 kts | 317° |
| 2026-05-04 19:36 | 46.24801 | -0.98197 | 23205 ft | 395 kts | 318° |
| 2026-05-04 19:36 | 46.26938 | -1.00665 | 22755 ft | 391 kts | 318° |
| 2026-05-04 19:36 | 46.29055 | -1.03110 | 22310 ft | 388 kts | 318° |
| 2026-05-04 19:36 | 46.31156 | -1.05544 | 21873 ft | 391 kts | 318° |
| 2026-05-04 19:37 | 46.33310 | -1.08045 | 21416 ft | 399 kts | 318° |
| 2026-05-04 19:37 | 46.35477 | -1.10560 | 20961 ft | 398 kts | 319° |
| 2026-05-04 19:37 | 46.37625 | -1.13054 | 20513 ft | 395 kts | 319° |
| 2026-05-04 19:37 | 46.39761 | -1.15533 | 20062 ft | 392 kts | 319° |
| 2026-05-04 19:38 | 46.41881 | -1.17996 | 19613 ft | 388 kts | 319° |
| 2026-05-04 19:38 | 46.43976 | -1.20435 | 19176 ft | 385 kts | 319° |
| 2026-05-04 19:38 | 46.46057 | -1.22862 | 18739 ft | 382 kts | 320° |
| 2026-05-04 19:38 | 46.48114 | -1.25268 | 18303 ft | 379 kts | 320° |
| 2026-05-04 19:39 | 46.50157 | -1.27660 | 17837 ft | 375 kts | 320° |
| 2026-05-04 19:39 | 46.52176 | -1.30029 | 17410 ft | 371 kts | 320° |
| 2026-05-04 19:39 | 46.54175 | -1.32370 | 16995 ft | 367 kts | 320° |
| 2026-05-04 19:39 | 46.56157 | -1.34690 | 16575 ft | 365 kts | 320° |
| 2026-05-04 19:40 | 46.58130 | -1.36998 | 16156 ft | 364 kts | 321° |
| 2026-05-04 19:40 | 46.60272 | -1.38935 | 15741 ft | 363 kts | 334° |
| 2026-05-04 19:40 | 46.62645 | -1.40144 | 15326 ft | 361 kts | 346° |
| 2026-05-04 19:40 | 46.65072 | -1.41057 | 14914 ft | 359 kts | 346° |
| 2026-05-04 19:41 | 46.67479 | -1.41972 | 14503 ft | 357 kts | 346° |
| 2026-05-04 19:41 | 46.69853 | -1.42827 | 14097 ft | 355 kts | 351° |
| 2026-05-04 19:41 | 46.72298 | -1.43051 | 13686 ft | 351 kts | 5° |
| 2026-05-04 19:41 | 46.74701 | -1.42603 | 13252 ft | 347 kts | 9° |
| 2026-05-04 19:42 | 46.77081 | -1.42096 | 12864 ft | 344 kts | 10° |
| 2026-05-04 19:42 | 46.79445 | -1.41596 | 12478 ft | 342 kts | 9° |
| 2026-05-04 19:42 | 46.81787 | -1.41104 | 12091 ft | 338 kts | 9° |
| 2026-05-04 19:42 | 46.84108 | -1.40617 | 11706 ft | 336 kts | 9° |
| 2026-05-04 19:43 | 46.86409 | -1.40135 | 11325 ft | 333 kts | 9° |
| 2026-05-04 19:43 | 46.88691 | -1.39657 | 10949 ft | 330 kts | 9° |
| 2026-05-04 19:43 | 46.90923 | -1.39186 | 10781 ft | 318 kts | 10° |
| 2026-05-04 19:43 | 46.93057 | -1.38735 | 10599 ft | 302 kts | 9° |
| 2026-05-04 19:44 | 46.95107 | -1.38302 | 10050 ft | 294 kts | 10° |
| 2026-05-04 19:44 | 46.97113 | -1.37873 | 9457 ft | 288 kts | 10° |
| 2026-05-04 19:44 | 46.99068 | -1.37460 | 9110 ft | 282 kts | 9° |
| 2026-05-04 19:44 | 47.01011 | -1.37051 | 8857 ft | 281 kts | 10° |
| 2026-05-04 19:45 | 47.02942 | -1.36642 | 8549 ft | 279 kts | 10° |
| 2026-05-04 19:45 | 47.04857 | -1.36231 | 8260 ft | 277 kts | 9° |
| 2026-05-04 19:45 | 47.06764 | -1.35819 | 7932 ft | 276 kts | 10° |
| 2026-05-04 19:45 | 47.08659 | -1.35410 | 7626 ft | 274 kts | 9° |
| 2026-05-04 19:46 | 47.10539 | -1.35007 | 7321 ft | 272 kts | 9° |
| 2026-05-04 19:46 | 47.12406 | -1.34607 | 7028 ft | 271 kts | 9° |
| 2026-05-04 19:46 | 47.14279 | -1.34203 | 6497 ft | 275 kts | 9° |
| 2026-05-04 19:46 | 47.16153 | -1.33801 | 6194 ft | 269 kts | 9° |
| 2026-05-04 19:47 | 47.18005 | -1.33406 | 5764 ft | 269 kts | 9° |
| 2026-05-04 19:47 | 47.19853 | -1.33015 | 5398 ft | 266 kts | 8° |
| 2026-05-04 19:47 | 47.21697 | -1.32625 | 4887 ft | 269 kts | 8° |
| 2026-05-04 19:47 | 47.23520 | -1.32237 | 4673 ft | 259 kts | 8° |
| 2026-05-04 19:48 | 47.25260 | -1.31869 | 4536 ft | 244 kts | 6° |
| 2026-05-04 19:48 | 47.26867 | -1.32037 | 4428 ft | 227 kts | 343° |
| 2026-05-04 19:48 | 47.28247 | -1.33109 | 4191 ft | 226 kts | 320° |
| 2026-05-04 19:48 | 47.29296 | -1.34821 | 3889 ft | 224 kts | 311° |
| 2026-05-04 19:49 | 47.30289 | -1.36566 | 3593 ft | 221 kts | 311° |
| 2026-05-04 19:49 | 47.31257 | -1.38297 | 3305 ft | 217 kts | 305° |
| 2026-05-04 19:49 | 47.31707 | -1.40355 | 3043 ft | 209 kts | 269° |
| 2026-05-04 19:49 | 47.31283 | -1.42330 | 3003 ft | 204 kts | 236° |
| 2026-05-04 19:50 | 47.30294 | -1.43702 | 3017 ft | 188 kts | 220° |
| 2026-05-04 19:50 | 47.29318 | -1.44880 | 2992 ft | 177 kts | 222° |
| 2026-05-04 19:50 | 47.28391 | -1.46031 | 2991 ft | 169 kts | 222° |
| 2026-05-04 19:50 | 47.27539 | -1.47095 | 3004 ft | 157 kts | 223° |
| 2026-05-04 19:51 | 47.26715 | -1.48128 | 2820 ft | 153 kts | 223° |
| 2026-05-04 19:51 | 47.25911 | -1.49136 | 2575 ft | 151 kts | 223° |
| 2026-05-04 19:51 | 47.25109 | -1.50134 | 2376 ft | 151 kts | 223° |
| 2026-05-04 19:51 | 47.24310 | -1.51125 | 2166 ft | 150 kts | 223° |
| 2026-05-04 19:52 | 47.23516 | -1.52110 | 1964 ft | 149 kts | 223° |
| 2026-05-04 19:52 | 47.22726 | -1.53088 | 1756 ft | 148 kts | 224° |
| 2026-05-04 19:52 | 47.21940 | -1.54063 | 1551 ft | 148 kts | 223° |
| 2026-05-04 19:52 | 47.21162 | -1.55028 | 1347 ft | 146 kts | 223° |
| 2026-05-04 19:53 | 47.20393 | -1.55982 | 1152 ft | 143 kts | 224° |
| 2026-05-04 19:53 | 47.19632 | -1.56923 | 948 ft | 142 kts | 223° |
| 2026-05-04 19:53 | 47.18900 | -1.57857 | 722 ft | 140 kts | 223° |
| 2026-05-04 19:53 | 47.18163 | -1.58771 | 478 ft | 138 kts | 220° |
| 2026-05-04 19:54 | 47.17350 | -1.59541 | 301 ft | 138 kts | 210° |
| 2026-05-04 19:54 | 47.16507 | -1.60165 | 137 ft | 137 kts | 210° |
| 2026-05-04 19:54 | 47.15745 | -1.60752 | 85 ft | 93 kts | 207° |
| 2026-05-04 19:54 | 47.15398 | -1.61013 | 88 ft | 39 kts | 207° |
| 2026-05-04 19:55 | 47.15176 | -1.61181 | 86 ft | 34 kts | 206° |
| 2026-05-04 19:55 | 47.15008 | -1.61307 | 87 ft | 26 kts | 208° |
| 2026-05-04 19:55 | 47.14862 | -1.61402 | 88 ft | 19 kts | 174° |
| 2026-05-04 19:55 | 47.14826 | -1.61268 | 91 ft | 9 kts | 76° |
| 2026-05-04 19:56 | 47.14842 | -1.61189 | 91 ft | 7 kts | 67° |
| 2026-05-04 19:56 | 47.14880 | -1.61138 | 91 ft | 8 kts | 29° |
| 2026-05-04 19:56 | 47.14924 | -1.61103 | 91 ft | 7 kts | 29° |
| 2026-05-04 19:56 | 47.14965 | -1.61070 | 91 ft | 7 kts | 27° |
| 2026-05-04 19:57 | 47.15007 | -1.61038 | 88 ft | 6 kts | 27° |
| 2026-05-04 19:57 | 47.15043 | -1.61011 | 90 ft | 6 kts | 26° |
| 2026-05-04 19:57 | 47.15097 | -1.60972 | 92 ft | 12 kts | 26° |
| 2026-05-04 19:57 | 47.15175 | -1.60914 | 90 ft | 13 kts | 27° |
| 2026-05-04 19:58 | 47.15248 | -1.60858 | 91 ft | 11 kts | 27° |
| 2026-05-04 19:58 | 47.15307 | -1.60813 | 92 ft | 9 kts | 28° |
| 2026-05-04 19:58 | 47.15361 | -1.60772 | 94 ft | 9 kts | 27° |
| 2026-05-04 19:58 | 47.15440 | -1.60712 | 93 ft | 17 kts | 27° |
| 2026-05-04 19:59 | 47.15543 | -1.60633 | 91 ft | 16 kts | 27° |
| 2026-05-04 19:59 | 47.15647 | -1.60554 | 93 ft | 17 kts | 27° |
| 2026-05-04 19:59 | 47.15756 | -1.60472 | 90 ft | 18 kts | 27° |
| 2026-05-04 19:59 | 47.15864 | -1.60388 | 90 ft | 9 kts | 27° |
| 2026-05-04 20:00 | 47.15905 | -1.60357 | 91 ft | 6 kts | 27° |
| 2026-05-04 20:00 | 47.15916 | -1.60320 | 89 ft | 4 kts | 109° |
| 2026-05-04 20:00 | 47.15908 | -1.60291 | 91 ft | 2 kts | 113° |
| 2026-05-04 20:00 | 47.15903 | -1.60276 | 90 ft | 1 kts | 117° |
| 2026-05-04 20:01 | 47.15901 | -1.60271 | 90 ft | 2 kts | 117° |
| 2026-05-04 20:01 | 47.15896 | -1.60256 | 92 ft | 0 kts | 116° |